Time;durP1;ratioP1;P1;durP2;ratioP2;P2;SDS_P1;SDS_P2;PMS_P1;PMS_P2;Temp;Humidity;BMP_temperature;BMP_pressure;BME280_temperature;BME280_humidity;BME280_pressure;Samples;Min_cycle;Max_cycle;Signal;HPM_P1;HPM_P2
2023/12/04 00:00:10;;;;;;;33.20;26.37;;;-5.20;99.90;;;;;;4857267;29;20998;-79
2023/12/04 00:02:39;;;;;;;31.07;25.90;;;-5.10;99.90;;;;;;4864576;29;20441;-78
2023/12/04 00:05:09;;;;;;;28.30;25.07;;;-5.20;99.90;;;;;;4847139;29;20912;-78
2023/12/04 00:07:36;;;;;;;28.77;24.27;;;-5.20;99.90;;;;;;4830513;29;20452;-78
2023/12/04 00:10:02;;;;;;;28.20;24.70;;;-5.20;99.90;;;;;;4847954;29;20459;-78
2023/12/04 00:12:29;;;;;;;31.77;25.00;;;-5.30;99.90;;;;;;4877954;29;20538;-79
2023/12/04 00:14:56;;;;;;;30.87;26.43;;;-5.30;99.90;;;;;;4864051;29;20489;-78
2023/12/04 00:17:23;;;;;;;33.50;25.87;;;-5.20;99.90;;;;;;4863857;29;20443;-78
2023/12/04 00:19:50;;;;;;;32.97;27.17;;;-5.20;99.90;;;;;;4865602;29;20962;-77
2023/12/04 00:22:18;;;;;;;30.70;26.00;;;-5.30;99.90;;;;;;4844217;29;20498;-78
2023/12/04 00:24:45;;;;;;;29.80;25.67;;;-5.30;99.90;;;;;;4860837;29;20443;-78
2023/12/04 00:27:11;;;;;;;28.63;25.53;;;-5.30;99.90;;;;;;4843806;29;20458;-79
2023/12/04 00:29:38;;;;;;;30.70;25.80;;;-5.40;99.90;;;;;;4844216;29;20457;-79
2023/12/04 00:32:06;;;;;;;36.20;27.37;;;-5.40;99.90;;;;;;4836864;29;20924;-78
2023/12/04 00:34:33;;;;;;;29.73;25.77;;;-5.40;99.90;;;;;;4867538;29;20485;-77
2023/12/04 00:37:00;;;;;;;28.80;25.67;;;-5.50;99.90;;;;;;4836366;29;20531;-77
2023/12/04 00:39:28;;;;;;;28.07;24.93;;;-5.50;99.90;;;;;;4862667;29;20447;-77
2023/12/04 00:41:55;;;;;;;28.23;25.33;;;-5.50;99.90;;;;;;4861815;29;20443;-77
2023/12/04 00:44:21;;;;;;;28.27;24.87;;;-5.50;99.90;;;;;;4863868;29;20476;-78
2023/12/04 00:46:48;;;;;;;29.80;25.33;;;-5.50;99.90;;;;;;4863143;29;20562;-77
2023/12/04 00:49:15;;;;;;;34.20;25.93;;;-5.50;99.90;;;;;;4847027;29;20518;-78
2023/12/04 00:51:42;;;;;;;28.37;24.63;;;-5.40;99.90;;;;;;4867072;29;21028;-77
2023/12/04 00:54:08;;;;;;;29.93;25.60;;;-5.40;99.90;;;;;;4847342;29;20487;-78
2023/12/04 00:56:39;;;;;;;29.83;25.33;;;-5.40;99.90;;;;;;4846853;29;20516;-77
2023/12/04 00:59:06;;;;;;;28.93;24.57;;;-5.40;99.90;;;;;;4850636;29;20460;-78
2023/12/04 01:01:33;;;;;;;31.37;25.20;;;-5.30;99.90;;;;;;4865698;29;20439;-77
2023/12/04 01:04:00;;;;;;;34.77;26.00;;;-5.30;99.90;;;;;;4848070;29;20439;-77
2023/12/04 01:06:27;;;;;;;33.43;26.00;;;-5.40;99.90;;;;;;4865349;29;20478;-77
2023/12/04 01:08:55;;;;;;;31.53;25.70;;;-5.40;99.90;;;;;;4863929;29;20439;-78
2023/12/04 01:11:22;;;;;;;33.77;26.03;;;-5.50;99.90;;;;;;4846568;29;20458;-77
2023/12/04 01:13:50;;;;;;;29.93;25.67;;;-5.50;99.90;;;;;;4846608;29;20530;-77
2023/12/04 01:16:17;;;;;;;33.80;26.43;;;-5.50;99.90;;;;;;4862619;29;20473;-77
2023/12/04 01:18:44;;;;;;;36.97;26.20;;;-5.50;99.90;;;;;;4844247;29;20464;-77
2023/12/04 01:21:11;;;;;;;34.17;25.47;;;-5.60;99.90;;;;;;4844806;29;20452;-77
2023/12/04 01:23:38;;;;;;;33.43;26.27;;;-5.70;99.90;;;;;;4869833;29;20475;-77
2023/12/04 01:26:05;;;;;;;29.87;25.13;;;-5.70;99.90;;;;;;4858238;29;20471;-77
2023/12/04 01:28:32;;;;;;;31.97;26.30;;;-5.60;99.90;;;;;;4848851;29;20464;-77
2023/12/04 01:31:00;;;;;;;32.87;25.90;;;-5.60;99.90;;;;;;4867996;29;20961;-77
2023/12/04 01:33:27;;;;;;;29.33;24.90;;;-5.70;99.90;;;;;;4854614;29;20600;-77
2023/12/04 01:35:54;;;;;;;29.13;24.50;;;-5.60;99.90;;;;;;4862353;29;20539;-77
2023/12/04 01:38:21;;;;;;;27.00;23.87;;;-5.70;99.90;;;;;;4862683;29;20561;-78
2023/12/04 01:40:47;;;;;;;32.77;25.93;;;-5.70;99.90;;;;;;4862517;29;20459;-77
2023/12/04 01:43:14;;;;;;;33.03;26.87;;;-5.80;99.90;;;;;;4840404;29;20502;-78
2023/12/04 01:45:41;;;;;;;28.40;25.33;;;-5.70;99.90;;;;;;4850451;29;20471;-78
2023/12/04 01:48:10;;;;;;;27.10;23.50;;;-5.80;99.90;;;;;;4842798;29;20499;-77
2023/12/04 01:50:38;;;;;;;29.27;24.90;;;-5.70;99.90;;;;;;4847433;29;20557;-79
2023/12/04 01:53:05;;;;;;;30.53;23.97;;;-5.80;99.90;;;;;;4850450;29;20636;-77
2023/12/04 01:55:34;;;;;;;28.67;23.53;;;-5.80;99.90;;;;;;4861630;29;20462;-78
2023/12/04 01:58:03;;;;;;;27.00;23.67;;;-5.80;99.90;;;;;;4865826;29;20443;-77
2023/12/04 02:00:32;;;;;;;27.60;23.17;;;-5.80;99.90;;;;;;4861884;29;20450;-77
2023/12/04 02:03:00;;;;;;;26.70;23.23;;;-5.80;99.90;;;;;;4845334;29;20505;-77
2023/12/04 02:05:29;;;;;;;31.10;24.43;;;-5.90;99.90;;;;;;4863706;29;20459;-77
2023/12/04 02:07:56;;;;;;;26.37;21.70;;;-5.80;99.90;;;;;;4866297;29;20508;-78
2023/12/04 02:10:23;;;;;;;26.30;23.47;;;-5.90;99.90;;;;;;4866694;29;21011;-77
2023/12/04 02:12:50;;;;;;;27.87;24.87;;;-5.80;99.90;;;;;;4864355;29;20524;-77
2023/12/04 02:15:17;;;;;;;25.63;22.50;;;-5.70;99.90;;;;;;4848694;29;20482;-77
2023/12/04 02:17:45;;;;;;;30.23;25.60;;;-5.70;99.90;;;;;;4868965;29;20820;-78
2023/12/04 02:20:14;;;;;;;26.60;23.57;;;-5.70;99.90;;;;;;4845135;29;20993;-77
2023/12/04 02:22:42;;;;;;;28.43;24.53;;;-5.80;99.90;;;;;;4844521;29;21009;-77
2023/12/04 02:25:11;;;;;;;26.53;23.70;;;-5.70;99.90;;;;;;4844879;29;20466;-77
2023/12/04 02:27:42;;;;;;;30.47;24.93;;;-5.80;99.90;;;;;;4844553;29;20458;-77
2023/12/04 02:30:13;;;;;;;30.83;23.50;;;-5.90;99.90;;;;;;4865082;29;20447;-77
2023/12/04 02:32:45;;;;;;;26.00;23.17;;;-5.80;99.90;;;;;;4844793;29;20578;-77
2023/12/04 02:35:14;;;;;;;26.13;23.40;;;-5.80;99.90;;;;;;4861025;29;20471;-77
2023/12/04 02:37:42;;;;;;;27.93;24.87;;;-5.70;99.90;;;;;;4861310;29;20491;-77
2023/12/04 02:40:12;;;;;;;29.27;24.80;;;-5.70;99.90;;;;;;4861558;29;20446;-77
2023/12/04 02:42:39;;;;;;;30.00;24.80;;;-5.60;99.90;;;;;;4844679;29;20451;-78
2023/12/04 02:45:07;;;;;;;30.37;26.37;;;-5.70;99.90;;;;;;4844492;29;20482;-77
2023/12/04 02:47:34;;;;;;;31.60;26.53;;;-5.60;99.90;;;;;;4844286;29;20521;-77
2023/12/04 02:50:01;;;;;;;29.77;25.33;;;-5.60;99.90;;;;;;4865191;29;20442;-77
2023/12/04 02:52:27;;;;;;;30.27;25.47;;;-5.50;99.90;;;;;;4861089;29;20942;-78
2023/12/04 02:54:54;;;;;;;32.13;25.60;;;-5.50;99.90;;;;;;4863239;29;20896;-78
2023/12/04 02:57:22;;;;;;;29.57;25.53;;;-5.50;99.90;;;;;;4863867;29;20446;-77
2023/12/04 02:59:50;;;;;;;31.90;25.80;;;-5.50;99.90;;;;;;4844780;29;20455;-77
2023/12/04 03:02:16;;;;;;;30.93;26.13;;;-5.60;99.90;;;;;;4844648;29;20471;-77
2023/12/04 03:04:44;;;;;;;32.47;27.07;;;-5.60;99.90;;;;;;4844467;29;20457;-78
2023/12/04 03:07:11;;;;;;;30.03;25.13;;;-5.70;99.90;;;;;;4870522;29;20555;-78
2023/12/04 03:09:37;;;;;;;31.33;25.10;;;-5.70;99.90;;;;;;4850468;29;20537;-79
2023/12/04 03:12:05;;;;;;;31.83;25.53;;;-5.60;99.90;;;;;;4849479;29;20540;-78
2023/12/04 03:14:34;;;;;;;28.13;25.13;;;-5.60;99.90;;;;;;4850616;29;20482;-78
2023/12/04 03:17:01;;;;;;;31.90;26.10;;;-5.60;99.90;;;;;;4847886;29;20536;-78
2023/12/04 03:19:27;;;;;;;35.53;26.57;;;-5.60;99.90;;;;;;4869516;29;20454;-78
2023/12/04 03:21:54;;;;;;;28.27;25.27;;;-5.60;99.90;;;;;;4846296;29;20450;-79
2023/12/04 03:24:21;;;;;;;28.70;25.53;;;-5.50;99.90;;;;;;4841779;29;20525;-77
2023/12/04 03:26:48;;;;;;;29.43;24.97;;;-5.60;99.90;;;;;;4856864;29;20470;-78
2023/12/04 03:29:15;;;;;;;28.70;25.30;;;-5.50;99.90;;;;;;4845407;29;20483;-78
2023/12/04 03:31:43;;;;;;;31.00;24.67;;;-5.60;99.90;;;;;;4857899;29;20499;-78
2023/12/04 03:34:10;;;;;;;28.07;24.13;;;-5.50;99.90;;;;;;4852814;29;20585;-78
2023/12/04 03:36:37;;;;;;;29.07;24.93;;;-5.50;99.90;;;;;;4848394;29;20527;-78
2023/12/04 03:39:04;;;;;;;29.83;25.03;;;-5.40;99.90;;;;;;4865583;29;20447;-77
2023/12/04 03:41:31;;;;;;;29.63;25.53;;;-5.50;99.90;;;;;;4846892;29;20454;-78
2023/12/04 03:43:58;;;;;;;28.97;25.47;;;-5.40;99.90;;;;;;4866345;29;20442;-78
2023/12/04 03:46:25;;;;;;;31.07;24.80;;;-5.50;99.90;;;;;;4861734;29;20502;-78
2023/12/04 03:48:53;;;;;;;27.93;24.40;;;-5.50;99.90;;;;;;4845912;29;20470;-79
2023/12/04 03:51:20;;;;;;;30.70;25.53;;;-5.60;99.90;;;;;;4867328;29;20874;-78
2023/12/04 03:53:47;;;;;;;33.03;26.47;;;-5.60;99.90;;;;;;4860600;29;20474;-79
2023/12/04 03:56:14;;;;;;;30.20;25.43;;;-5.50;99.90;;;;;;4858118;29;20478;-81
2023/12/04 03:58:40;;;;;;;29.90;25.03;;;-5.50;99.90;;;;;;4853186;29;20483;-79
2023/12/04 04:01:07;;;;;;;31.63;26.00;;;-5.50;99.90;;;;;;4842445;29;20503;-79
2023/12/04 04:03:34;;;;;;;29.20;24.57;;;-5.40;99.90;;;;;;4849751;29;20460;-79
2023/12/04 04:06:03;;;;;;;31.13;25.03;;;-5.50;99.90;;;;;;4857540;29;20546;-80
2023/12/04 04:08:29;;;;;;;32.07;26.23;;;-5.40;99.90;;;;;;4840312;29;21332;-80
2023/12/04 04:10:56;;;;;;;28.77;25.50;;;-5.40;99.90;;;;;;4860405;29;20975;-79
2023/12/04 04:13:23;;;;;;;27.83;25.00;;;-5.40;99.90;;;;;;4846085;29;20478;-79
2023/12/04 04:15:50;;;;;;;30.50;24.87;;;-5.30;99.90;;;;;;4868885;29;20462;-77
2023/12/04 04:18:16;;;;;;;27.73;24.63;;;-5.40;99.90;;;;;;4847103;29;20497;-79
2023/12/04 04:20:43;;;;;;;26.77;23.93;;;-5.20;99.90;;;;;;4869356;29;20803;-79
2023/12/04 04:23:11;;;;;;;27.93;23.83;;;-5.20;99.90;;;;;;4852114;29;20489;-78
2023/12/04 04:25:38;;;;;;;26.83;23.53;;;-5.00;99.90;;;;;;4859216;29;20479;-78
2023/12/04 04:28:05;;;;;;;26.03;23.43;;;-5.00;99.90;;;;;;4850402;29;20454;-78
2023/12/04 04:30:32;;;;;;;30.93;26.30;;;-5.00;99.90;;;;;;4869432;29;20508;-80
2023/12/04 04:32:58;;;;;;;29.00;24.03;;;-5.00;99.90;;;;;;4874961;29;20478;-78
2023/12/04 04:35:25;;;;;;;26.83;24.03;;;-5.00;99.90;;;;;;4846701;29;20474;-80
2023/12/04 04:37:52;;;;;;;25.97;23.17;;;-5.10;99.90;;;;;;4874057;29;21083;-77
2023/12/04 04:40:20;;;;;;;26.47;23.67;;;-5.10;99.90;;;;;;4853380;29;20915;-78
2023/12/04 04:42:47;;;;;;;26.27;23.53;;;-5.00;99.90;;;;;;4872746;29;20482;-78
2023/12/04 04:45:14;;;;;;;27.47;24.57;;;-5.00;99.90;;;;;;4867457;29;21106;-77
2023/12/04 04:47:41;;;;;;;27.73;23.57;;;-5.00;99.90;;;;;;4850403;29;20519;-78
2023/12/04 04:50:08;;;;;;;25.93;23.37;;;-5.00;99.90;;;;;;4872652;29;20850;-78
2023/12/04 04:52:35;;;;;;;26.00;23.17;;;-5.00;99.90;;;;;;4867187;29;20482;-78
2023/12/04 04:55:02;;;;;;;26.30;23.57;;;-5.00;99.90;;;;;;4850309;29;20510;-78
2023/12/04 04:57:30;;;;;;;26.20;23.50;;;-4.90;99.90;;;;;;4849263;29;20505;-78
2023/12/04 04:59:57;;;;;;;26.13;23.37;;;-4.90;99.90;;;;;;4866643;29;20443;-78
2023/12/04 05:02:24;;;;;;;25.60;22.80;;;-4.80;99.90;;;;;;4870737;29;20480;-77
2023/12/04 05:04:51;;;;;;;27.97;24.33;;;-4.70;99.90;;;;;;4849444;29;20496;-77
2023/12/04 05:07:17;;;;;;;25.53;23.00;;;-4.60;99.90;;;;;;4867185;29;20483;-77
2023/12/04 05:09:44;;;;;;;25.43;22.70;;;-4.60;99.90;;;;;;4866221;29;20451;-77
2023/12/04 05:12:11;;;;;;;26.07;23.23;;;-4.60;99.90;;;;;;4849696;29;20519;-78
2023/12/04 05:14:39;;;;;;;27.83;23.67;;;-4.50;99.90;;;;;;4853057;29;20572;-79
2023/12/04 05:17:06;;;;;;;29.10;25.57;;;-4.60;99.90;;;;;;4866995;29;20947;-78
2023/12/04 05:19:33;;;;;;;26.33;23.43;;;-4.50;99.90;;;;;;4866481;29;20456;-77
2023/12/04 05:22:00;;;;;;;26.27;23.40;;;-4.50;99.90;;;;;;4866801;29;20468;-78
2023/12/04 05:24:26;;;;;;;25.43;22.73;;;-4.50;99.90;;;;;;4872664;29;20443;-78
2023/12/04 05:26:53;;;;;;;24.27;21.70;;;-4.50;99.90;;;;;;4850695;29;20521;-78
2023/12/04 05:29:20;;;;;;;26.00;23.20;;;-4.50;99.90;;;;;;4849899;29;20458;-78
2023/12/04 05:31:48;;;;;;;26.77;23.97;;;-4.50;99.90;;;;;;4870522;29;20441;-78
2023/12/04 05:34:15;;;;;;;25.73;23.03;;;-4.50;99.90;;;;;;4868207;29;21065;-79
2023/12/04 05:36:42;;;;;;;27.53;24.77;;;-4.60;99.90;;;;;;4868399;29;20475;-78
2023/12/04 05:39:09;;;;;;;25.73;22.93;;;-4.50;99.90;;;;;;4866741;29;20471;-79
2023/12/04 05:41:36;;;;;;;27.83;22.80;;;-4.60;99.90;;;;;;4869443;29;20450;-78
2023/12/04 05:44:02;;;;;;;27.30;23.50;;;-4.50;99.90;;;;;;4849861;29;20459;-78
2023/12/04 05:46:29;;;;;;;26.23;23.07;;;-4.60;99.90;;;;;;4859610;29;21028;-79
2023/12/04 05:48:57;;;;;;;26.83;23.27;;;-4.60;99.90;;;;;;4848567;29;20925;-77
2023/12/04 05:51:24;;;;;;;27.93;23.37;;;-4.50;99.90;;;;;;4870718;29;20453;-78
2023/12/04 05:53:51;;;;;;;26.83;23.93;;;-4.50;99.90;;;;;;4850326;29;20475;-78
2023/12/04 05:56:18;;;;;;;27.10;22.57;;;-4.40;99.90;;;;;;4864829;29;20974;-78
2023/12/04 05:58:44;;;;;;;24.83;22.33;;;-4.40;99.90;;;;;;4866762;29;20519;-77
2023/12/04 06:01:11;;;;;;;25.17;22.70;;;-4.50;99.90;;;;;;4835210;29;20455;-79
2023/12/04 06:03:38;;;;;;;25.17;22.50;;;-4.40;99.90;;;;;;4868217;29;20486;-79
2023/12/04 06:06:07;;;;;;;24.23;21.73;;;-4.30;99.90;;;;;;4847456;29;20478;-78
2023/12/04 06:08:34;;;;;;;26.60;23.77;;;-4.40;99.90;;;;;;4865820;29;20443;-78
2023/12/04 06:11:01;;;;;;;25.93;23.23;;;-4.40;99.90;;;;;;4849205;29;20447;-78
2023/12/04 06:13:28;;;;;;;26.00;22.90;;;-4.30;99.90;;;;;;4868894;29;20489;-79
2023/12/04 06:15:55;;;;;;;26.90;22.53;;;-4.40;99.90;;;;;;4876415;29;20474;-77
2023/12/04 06:18:21;;;;;;;26.33;23.20;;;-4.30;99.90;;;;;;4856607;29;20855;-79
2023/12/04 06:20:48;;;;;;;25.43;22.73;;;-4.40;99.90;;;;;;4866913;29;20446;-79
2023/12/04 06:23:18;;;;;;;23.60;21.37;;;-4.50;99.90;;;;;;4848051;29;20989;-78
2023/12/04 06:25:45;;;;;;;23.77;21.43;;;-4.40;99.90;;;;;;4846635;29;20500;-79
2023/12/04 06:28:12;;;;;;;24.13;21.57;;;-4.30;99.90;;;;;;4869456;29;20443;-78
2023/12/04 06:30:40;;;;;;;25.87;23.23;;;-4.30;99.90;;;;;;4849767;29;20489;-77
2023/12/04 06:33:08;;;;;;;23.40;20.90;;;-4.40;99.90;;;;;;4866073;29;20502;-78
2023/12/04 06:35:36;;;;;;;23.33;21.03;;;-4.40;99.90;;;;;;4851543;29;20490;-78
2023/12/04 06:38:07;;;;;;;23.97;21.47;;;-4.40;99.90;;;;;;4847220;29;20821;-78
2023/12/04 06:40:36;;;;;;;23.40;21.20;;;-4.40;99.90;;;;;;4867828;29;20447;-78
2023/12/04 06:43:04;;;;;;;25.77;23.07;;;-4.30;99.90;;;;;;4864851;29;20447;-78
2023/12/04 06:45:32;;;;;;;24.10;21.60;;;-4.30;99.90;;;;;;4868574;29;20499;-77
2023/12/04 06:48:00;;;;;;;24.47;21.97;;;-4.20;99.90;;;;;;4870326;29;20456;-78
2023/12/04 06:50:27;;;;;;;25.70;23.10;;;-4.20;99.90;;;;;;4863899;29;20499;-78
2023/12/04 06:52:54;;;;;;;24.03;21.63;;;-4.30;99.90;;;;;;4849352;29;20486;-78
2023/12/04 06:55:21;;;;;;;25.03;22.53;;;-4.20;99.90;;;;;;4863225;29;20525;-78
2023/12/04 06:57:49;;;;;;;24.97;22.53;;;-4.20;99.90;;;;;;4864372;29;20486;-78
2023/12/04 07:00:16;;;;;;;25.90;23.20;;;-4.30;99.90;;;;;;4864383;29;20442;-79
2023/12/04 07:02:43;;;;;;;25.90;22.93;;;-4.30;99.90;;;;;;4847649;29;20565;-77
2023/12/04 07:05:10;;;;;;;26.30;23.53;;;-4.30;99.90;;;;;;4847398;29;20497;-78
2023/12/04 07:07:37;;;;;;;24.87;22.20;;;-4.30;99.90;;;;;;4869261;29;20505;-79
2023/12/04 07:10:04;;;;;;;23.87;21.40;;;-4.30;99.90;;;;;;4848306;29;20886;-78
2023/12/04 07:12:31;;;;;;;25.70;22.43;;;-4.30;99.90;;;;;;4848766;29;20462;-78
2023/12/04 07:14:59;;;;;;;23.87;21.30;;;-4.30;99.90;;;;;;4849224;29;20560;-78
2023/12/04 07:17:26;;;;;;;24.60;22.00;;;-4.20;99.90;;;;;;4856125;29;20443;-79
2023/12/04 07:19:53;;;;;;;24.90;22.47;;;-4.10;99.90;;;;;;4863920;29;20474;-78
2023/12/04 07:22:20;;;;;;;23.93;21.50;;;-4.10;99.90;;;;;;4846837;29;20591;-78
2023/12/04 07:24:46;;;;;;;24.10;21.53;;;-4.00;99.90;;;;;;4846121;29;20462;-77
2023/12/04 07:27:13;;;;;;;24.07;21.50;;;-4.10;99.90;;;;;;4866818;29;20466;-78
2023/12/04 07:29:40;;;;;;;24.03;21.53;;;-4.10;99.90;;;;;;4850156;29;20506;-78
2023/12/04 07:32:08;;;;;;;24.80;22.20;;;-4.10;99.90;;;;;;4846794;29;21048;-78
2023/12/04 07:34:36;;;;;;;23.63;21.23;;;-4.00;99.90;;;;;;4862259;29;20515;-78
2023/12/04 07:37:03;;;;;;;25.60;22.90;;;-4.00;99.90;;;;;;4844956;29;20487;-78
2023/12/04 07:39:30;;;;;;;24.83;22.33;;;-4.00;99.90;;;;;;4846598;29;20451;-78
2023/12/04 07:41:57;;;;;;;25.67;22.70;;;-3.90;99.90;;;;;;4845913;29;20497;-78
2023/12/04 07:44:24;;;;;;;25.17;22.57;;;-3.90;99.90;;;;;;4862718;29;20450;-77
2023/12/04 07:46:50;;;;;;;24.17;21.83;;;-3.90;99.90;;;;;;4868477;29;20521;-77
2023/12/04 07:49:18;;;;;;;25.27;22.77;;;-3.90;99.90;;;;;;4848933;29;20890;-78
2023/12/04 07:51:45;;;;;;;23.97;21.50;;;-3.80;99.90;;;;;;4849889;29;20530;-78
2023/12/04 07:54:12;;;;;;;23.83;21.33;;;-3.80;99.90;;;;;;4843655;29;20519;-81
2023/12/04 07:56:39;;;;;;;23.60;20.93;;;-3.70;99.90;;;;;;4843370;29;20482;-80
2023/12/04 07:59:05;;;;;;;23.27;20.80;;;-3.60;99.90;;;;;;4844905;29;20451;-80
2023/12/04 08:01:32;;;;;;;22.97;20.80;;;-3.50;99.90;;;;;;4862653;29;20510;-80
2023/12/04 08:03:59;;;;;;;21.90;19.80;;;-3.50;99.90;;;;;;4845136;29;21051;-80
2023/12/04 08:06:28;;;;;;;23.90;21.37;;;-3.40;99.90;;;;;;4852973;29;20900;-80
2023/12/04 08:08:55;;;;;;;23.63;21.07;;;-3.40;99.90;;;;;;4860453;29;20443;-80
2023/12/04 08:11:22;;;;;;;23.80;21.40;;;-3.40;99.90;;;;;;4858508;29;21009;-80
2023/12/04 08:13:49;;;;;;;23.43;20.97;;;-3.30;99.90;;;;;;4863751;29;20841;-81
2023/12/04 08:16:16;;;;;;;27.07;23.30;;;-3.30;99.90;;;;;;4843444;29;20525;-80
2023/12/04 08:18:43;;;;;;;24.13;21.57;;;-3.30;99.90;;;;;;4843569;29;20447;-80
2023/12/04 08:21:11;;;;;;;30.23;23.93;;;-3.20;99.90;;;;;;4863536;29;20523;-80
2023/12/04 08:23:39;;;;;;;26.20;23.33;;;-3.20;99.90;;;;;;4864172;29;20499;-80
2023/12/04 08:26:06;;;;;;;26.33;23.63;;;-3.20;99.90;;;;;;4837388;29;20476;-80
2023/12/04 08:28:35;;;;;;;27.10;24.17;;;-3.20;99.90;;;;;;4846531;29;20453;-80
2023/12/04 08:31:02;;;;;;;25.10;22.57;;;-3.20;99.90;;;;;;4845613;29;20458;-80
2023/12/04 08:33:28;;;;;;;25.83;23.13;;;-3.30;99.90;;;;;;4849991;29;20481;-80
2023/12/04 08:35:55;;;;;;;24.07;21.67;;;-3.30;99.90;;;;;;4842562;29;20494;-78
2023/12/04 08:38:22;;;;;;;24.80;22.13;;;-3.30;99.90;;;;;;4836898;29;20520;-80
2023/12/04 08:40:50;;;;;;;25.03;22.43;;;-3.20;99.90;;;;;;4860893;29;20821;-80
2023/12/04 08:43:18;;;;;;;22.70;20.43;;;-3.20;99.90;;;;;;4843489;29;20467;-80
2023/12/04 08:45:46;;;;;;;23.23;20.83;;;-3.10;99.90;;;;;;4852079;29;21010;-80
2023/12/04 08:48:12;;;;;;;23.40;21.07;;;-3.10;99.90;;;;;;4857601;29;20451;-80
2023/12/04 08:50:40;;;;;;;23.00;20.80;;;-3.00;99.90;;;;;;4839107;29;20974;-81
2023/12/04 08:53:07;;;;;;;23.77;21.37;;;-3.00;99.90;;;;;;4857496;29;20478;-81
2023/12/04 08:55:33;;;;;;;22.50;20.20;;;-2.90;99.90;;;;;;4856459;29;21075;-80
2023/12/04 08:58:02;;;;;;;24.40;20.80;;;-2.80;99.90;;;;;;4835499;29;20792;-81
2023/12/04 09:03:56;;;;;;;21.03;18.87;;;-2.70;99.90;;;;;;4793432;29;20990;-81
2023/12/04 09:06:23;;;;;;;21.17;19.13;;;-2.60;99.90;;;;;;4858541;29;20471;-79
2023/12/04 09:08:50;;;;;;;22.03;19.87;;;-2.60;99.90;;;;;;4846430;29;20446;-81
2023/12/04 09:11:17;;;;;;;21.63;19.37;;;-2.50;99.90;;;;;;4848830;29;20818;-81
2023/12/04 09:13:45;;;;;;;22.90;20.50;;;-2.50;99.90;;;;;;4866072;29;20967;-80
2023/12/04 09:16:13;;;;;;;22.43;20.23;;;-2.50;99.90;;;;;;4870499;29;20498;-81
2023/12/04 09:18:40;;;;;;;22.80;20.20;;;-2.60;99.90;;;;;;4848813;29;20459;-80
2023/12/04 09:21:10;;;;;;;22.73;20.60;;;-2.60;99.90;;;;;;4864009;29;20499;-81
2023/12/04 09:23:37;;;;;;;21.50;19.40;;;-2.60;99.90;;;;;;4849453;29;20977;-80
2023/12/04 09:26:04;;;;;;;22.33;20.13;;;-2.40;99.90;;;;;;4850809;29;20470;-79
2023/12/04 09:28:31;;;;;;;23.10;20.80;;;-2.30;99.90;;;;;;4847132;29;20459;-80
2023/12/04 09:30:59;;;;;;;21.93;19.90;;;-2.20;99.90;;;;;;4843802;29;20484;-79
2023/12/04 09:33:26;;;;;;;23.30;21.00;;;-2.10;99.90;;;;;;4862184;29;20504;-80
2023/12/04 09:35:53;;;;;;;22.90;20.70;;;-2.00;99.90;;;;;;4864402;29;20489;-80
2023/12/04 09:38:20;;;;;;;21.83;19.87;;;-1.90;99.90;;;;;;4846306;29;20455;-80
2023/12/04 09:40:47;;;;;;;20.70;18.70;;;-1.90;99.90;;;;;;4867089;29;20443;-79
2023/12/04 09:43:15;;;;;;;22.47;20.07;;;-1.80;99.90;;;;;;4863286;29;20481;-79
2023/12/04 09:45:43;;;;;;;22.37;20.33;;;-1.70;99.90;;;;;;4846958;29;20486;-78
2023/12/04 09:48:11;;;;;;;21.93;20.03;;;-1.70;99.90;;;;;;4846005;29;21202;-79
2023/12/04 09:50:39;;;;;;;21.53;19.43;;;-1.60;99.90;;;;;;4856336;29;20800;-78
2023/12/04 09:53:10;;;;;;;21.53;19.47;;;-1.50;99.90;;;;;;4856267;29;20908;-79
2023/12/04 09:55:37;;;;;;;21.83;19.63;;;-1.50;99.90;;;;;;4841739;29;20487;-78
2023/12/04 09:58:05;;;;;;;21.77;19.73;;;-1.40;99.90;;;;;;4840526;29;20456;-79
2023/12/04 10:00:33;;;;;;;22.67;20.60;;;-1.40;99.90;;;;;;4846264;29;21120;-78
2023/12/04 10:03:00;;;;;;;22.90;20.70;;;-1.30;99.90;;;;;;4842191;29;20519;-78
2023/12/04 10:05:28;;;;;;;22.20;19.60;;;-1.20;99.90;;;;;;4853087;29;20974;-79
2023/12/04 10:07:55;;;;;;;21.33;19.33;;;-1.20;99.90;;;;;;4840317;29;20477;-79
2023/12/04 10:10:22;;;;;;;22.70;20.60;;;-1.10;99.90;;;;;;4839581;29;20461;-78
2023/12/04 10:12:48;;;;;;;20.07;18.27;;;-0.90;99.90;;;;;;4867495;29;20468;-78
2023/12/04 10:15:16;;;;;;;21.80;19.80;;;-0.80;99.90;;;;;;4866985;29;20492;-78
2023/12/04 10:17:44;;;;;;;21.70;19.63;;;-0.70;99.90;;;;;;4846695;29;20510;-78
2023/12/04 10:20:12;;;;;;;22.77;20.57;;;-0.70;99.90;;;;;;4848740;29;20461;-78
2023/12/04 10:22:53;;;;;;;21.93;19.83;;;-0.70;99.90;;;;;;4845383;29;20522;-78
2023/12/04 10:25:21;;;;;;;20.33;18.53;;;-0.60;99.90;;;;;;4845810;29;20573;-79
2023/12/04 10:27:48;;;;;;;19.93;18.20;;;-0.60;99.90;;;;;;4861621;29;20461;-78
2023/12/04 10:30:26;;;;;;;20.57;18.67;;;-0.60;99.90;;;;;;4845382;29;20473;-78
2023/12/04 10:33:00;;;;;;;20.57;18.60;;;-0.60;99.90;;;;;;4846138;29;20881;-78
2023/12/04 10:35:29;;;;;;;19.60;17.83;;;-0.60;99.90;;;;;;4861958;29;20946;-78
2023/12/04 10:37:57;;;;;;;19.47;17.77;;;-0.60;99.90;;;;;;4844452;29;20454;-78
2023/12/04 10:40:25;;;;;;;20.23;18.43;;;-0.60;99.90;;;;;;4847775;29;20447;-78
2023/12/04 10:42:52;;;;;;;19.50;17.70;;;-0.60;99.90;;;;;;4868753;29;20457;-78
2023/12/04 10:45:22;;;;;;;18.90;17.30;;;-0.50;99.90;;;;;;4863338;29;20840;-79
2023/12/04 10:47:51;;;;;;;19.93;18.13;;;-0.40;99.90;;;;;;4844116;29;20517;-79
2023/12/04 10:50:18;;;;;;;20.40;18.60;;;-0.20;99.90;;;;;;4844494;29;20448;-79
2023/12/04 10:52:46;;;;;;;18.53;16.93;;;-0.20;99.90;;;;;;4843500;29;20552;-79
2023/12/04 10:55:15;;;;;;;20.97;18.93;;;-0.10;99.90;;;;;;4867128;29;20532;-79
2023/12/04 10:57:44;;;;;;;20.47;18.47;;;-0.10;99.90;;;;;;4863321;29;20941;-79
2023/12/04 11:00:16;;;;;;;20.60;18.60;;;0.00;99.90;;;;;;4846182;29;20460;-80
2023/12/04 11:02:46;;;;;;;19.17;17.57;;;0.00;99.90;;;;;;4854820;29;20453;-79
2023/12/04 11:05:17;;;;;;;20.07;18.17;;;0.10;99.90;;;;;;4862617;29;20470;-79
2023/12/04 11:07:49;;;;;;;19.13;17.33;;;0.20;99.90;;;;;;4853446;29;20452;-79
2023/12/04 11:10:20;;;;;;;18.90;17.30;;;0.30;99.90;;;;;;4862551;29;20800;-79
2023/12/04 11:12:50;;;;;;;20.37;18.53;;;0.30;99.90;;;;;;4859939;29;20447;-79
2023/12/04 11:15:21;;;;;;;21.93;20.00;;;0.30;99.90;;;;;;4864595;29;20538;-80
2023/12/04 11:17:55;;;;;;;19.93;18.13;;;0.30;99.90;;;;;;4842692;29;20466;-80
2023/12/04 11:20:27;;;;;;;18.83;17.23;;;0.30;99.90;;;;;;4845644;29;20507;-80
2023/12/04 11:22:56;;;;;;;19.63;17.83;;;0.40;99.90;;;;;;4843270;29;20459;-79
2023/12/04 11:25:24;;;;;;;19.70;18.10;;;0.50;99.90;;;;;;4845050;29;20477;-79
2023/12/04 11:27:52;;;;;;;19.83;18.13;;;0.60;99.90;;;;;;4860390;29;20471;-79
2023/12/04 11:30:19;;;;;;;20.73;18.93;;;0.60;99.90;;;;;;4846655;29;20673;-80
2023/12/04 11:32:47;;;;;;;20.83;18.93;;;0.60;99.90;;;;;;4844018;29;20477;-79
2023/12/04 11:35:17;;;;;;;24.53;22.13;;;0.80;99.90;;;;;;4861733;29;20848;-80
2023/12/04 11:37:45;;;;;;;23.90;21.73;;;2.40;99.90;;;;;;4868356;29;20457;-79
2023/12/04 11:40:13;;;;;;;23.27;21.23;;;2.40;99.90;;;;;;4843107;29;20449;-77
2023/12/04 11:42:42;;;;;;;23.17;21.10;;;2.20;99.90;;;;;;4839652;29;20198;-80
2023/12/04 11:45:11;;;;;;;21.90;20.00;;;1.80;99.90;;;;;;4847712;29;20229;-81
2023/12/04 11:47:50;;;;;;;21.47;19.63;;;1.60;99.90;;;;;;4844569;29;20206;-78
2023/12/04 11:50:18;;;;;;;22.17;20.07;;;1.30;99.90;;;;;;4845167;29;20259;-77
2023/12/04 11:52:45;;;;;;;22.07;20.07;;;1.20;99.90;;;;;;4844726;29;20512;-78
2023/12/04 11:55:12;;;;;;;22.00;20.10;;;0.90;99.90;;;;;;4865251;29;20300;-78
2023/12/04 11:57:41;;;;;;;22.00;20.07;;;0.80;99.90;;;;;;4863600;29;20538;-78
2023/12/04 12:00:16;;;;;;;23.77;21.57;;;0.80;99.90;;;;;;4865318;29;20508;-78
2023/12/04 12:02:49;;;;;;;22.33;20.43;;;0.70;99.90;;;;;;4856444;29;20450;-77
2023/12/04 12:05:16;;;;;;;21.77;19.77;;;0.80;99.90;;;;;;4862096;29;20222;-81
2023/12/04 12:07:43;;;;;;;21.67;19.73;;;0.80;99.90;;;;;;4845635;29;20610;-85
2023/12/04 12:10:12;;;;;;;21.97;19.97;;;1.00;99.90;;;;;;4845547;29;20647;-86
2023/12/04 12:12:45;;;;;;;23.80;21.67;;;1.20;99.90;;;;;;4846056;29;21058;-87
2023/12/04 12:15:12;;;;;;;23.13;20.93;;;1.40;99.90;;;;;;4846450;29;20314;-84
2023/12/04 12:17:40;;;;;;;23.33;21.27;;;1.40;99.90;;;;;;4845939;29;20222;-86
2023/12/04 12:20:08;;;;;;;21.87;19.83;;;1.50;99.90;;;;;;4847939;29;20222;-82
2023/12/04 12:22:37;;;;;;;22.73;20.63;;;1.60;99.90;;;;;;4846528;29;20224;-80
2023/12/04 12:25:06;;;;;;;25.30;22.80;;;1.70;99.90;;;;;;4844444;29;20209;-77
2023/12/04 12:27:33;;;;;;;24.20;22.00;;;1.60;99.90;;;;;;4861086;29;20604;-77
2023/12/04 12:30:03;;;;;;;24.70;22.20;;;1.50;99.90;;;;;;4869369;29;20201;-77
2023/12/04 12:32:30;;;;;;;22.73;20.63;;;1.40;99.90;;;;;;4849021;29;20599;-77